Time;durP1;ratioP1;P1;durP2;ratioP2;P2;SDS_P1;SDS_P2;PMS_P1;PMS_P2;Temp;Humidity;BMP_temperature;BMP_pressure;BME280_temperature;BME280_humidity;BME280_pressure;Samples;Min_cycle;Max_cycle;Signal;HPM_P1;HPM_P2
2021/10/21 00:01:18;;;;;;;6.70;3.50;;;;;;;;;;5127241;28;20481;-81
2021/10/21 00:03:47;;;;;;;7.57;3.47;;;;;;;;;;5126465;28;20450;-83
2021/10/21 00:06:14;;;;;;;5.17;3.80;;;;;;;;;;5128448;28;20479;-83
2021/10/21 00:08:43;;;;;;;6.57;4.30;;;;;;;;;;5131025;28;20602;-84
2021/10/21 00:11:11;;;;;;;4.13;3.10;;;;;;;;;;5130007;28;20539;-84
2021/10/21 00:13:39;;;;;;;4.70;3.20;;;;;;;;;;5131270;28;20451;-84
2021/10/21 00:16:07;;;;;;;4.00;3.60;;;;;;;;;;5129182;28;20484;-84
2021/10/21 00:18:36;;;;;;;6.40;3.43;;;;;;;;;;5130855;28;20455;-84
2021/10/21 00:21:07;;;;;;;10.37;3.83;;;;;;;;;;5130084;28;20447;-84
2021/10/21 00:23:35;;;;;;;3.50;2.83;;;;;;;;;;5129858;28;20847;-83
2021/10/21 00:26:07;;;;;;;6.80;3.47;;;;;;;;;;5128595;28;20531;-84
2021/10/21 00:28:34;;;;;;;4.63;3.13;;;;;;;;;;5128674;28;20457;-83
2021/10/21 00:31:06;;;;;;;6.90;3.70;;;;;;;;;;5129356;28;20455;-84
2021/10/21 00:33:38;;;;;;;5.17;3.60;;;;;;;;;;5129141;28;20443;-84
2021/10/21 00:36:06;;;;;;;7.27;3.97;;;;;;;;;;5128103;28;20567;-84
2021/10/21 00:38:33;;;;;;;4.60;3.30;;;;;;;;;;5129453;28;20458;-84
2021/10/21 00:41:01;;;;;;;7.27;3.63;;;;;;;;;;5129362;28;20863;-85
2021/10/21 00:43:35;;;;;;;9.03;3.77;;;;;;;;;;5127984;28;20458;-84
2021/10/21 00:46:04;;;;;;;5.80;3.23;;;;;;;;;;5129380;28;20434;-84
2021/10/21 00:48:32;;;;;;;5.20;4.10;;;;;;;;;;5127873;28;20532;-83
2021/10/21 00:51:01;;;;;;;4.00;3.30;;;;;;;;;;5127598;28;20455;-83
2021/10/21 00:53:31;;;;;;;3.47;2.93;;;;;;;;;;5128282;28;20470;-84
2021/10/21 00:56:00;;;;;;;3.30;2.80;;;;;;;;;;5126836;28;20546;-82
2021/10/21 00:58:27;;;;;;;5.47;3.07;;;;;;;;;;5128627;28;20482;-83
2021/10/21 01:00:56;;;;;;;4.67;3.27;;;;;;;;;;5126742;28;20499;-84
2021/10/21 01:03:27;;;;;;;8.83;3.43;;;;;;;;;;5126099;28;20564;-83
2021/10/21 01:05:56;;;;;;;5.90;4.53;;;;;;;;;;5128096;28;20486;-84
2021/10/21 01:08:26;;;;;;;6.53;3.30;;;;;;;;;;5124824;28;20465;-84
2021/10/21 01:10:54;;;;;;;5.00;3.27;;;;;;;;;;5126592;28;20837;-84
2021/10/21 01:13:22;;;;;;;4.00;3.40;;;;;;;;;;5124511;28;20760;-84
2021/10/21 01:16:03;;;;;;;4.27;3.43;;;;;;;;;;5126204;28;20809;-84
2021/10/21 01:18:32;;;;;;;7.93;4.37;;;;;;;;;;5125973;28;20550;-83
2021/10/21 01:21:02;;;;;;;8.40;3.40;;;;;;;;;;5123256;28;20457;-83
2021/10/21 01:23:29;;;;;;;7.97;3.57;;;;;;;;;;5128089;28;20451;-81
2021/10/21 01:25:57;;;;;;;4.57;3.40;;;;;;;;;;5124041;28;20510;-82
2021/10/21 01:28:25;;;;;;;5.90;3.43;;;;;;;;;;5125611;28;20470;-82
2021/10/21 01:30:53;;;;;;;4.80;3.30;;;;;;;;;;5127863;28;20454;-84
2021/10/21 01:33:21;;;;;;;4.87;3.80;;;;;;;;;;5128428;28;20555;-84
2021/10/21 01:35:48;;;;;;;4.87;3.67;;;;;;;;;;5128047;28;20682;-83
2021/10/21 01:38:17;;;;;;;3.80;3.37;;;;;;;;;;5127136;28;20474;-84
2021/10/21 01:40:48;;;;;;;5.23;3.80;;;;;;;;;;5127420;28;20454;-84
2021/10/21 01:43:15;;;;;;;4.60;3.53;;;;;;;;;;5126925;28;20447;-84
2021/10/21 01:45:43;;;;;;;6.13;3.80;;;;;;;;;;5126703;28;20514;-84
2021/10/21 01:48:13;;;;;;;5.80;3.70;;;;;;;;;;5126590;28;20889;-83
2021/10/21 01:50:41;;;;;;;10.37;3.63;;;;;;;;;;5127297;28;20455;-83
2021/10/21 01:53:11;;;;;;;5.60;3.10;;;;;;;;;;5127790;28;20542;-84
2021/10/21 01:55:42;;;;;;;7.73;3.23;;;;;;;;;;5129589;28;20453;-83
2021/10/21 01:58:09;;;;;;;5.60;3.40;;;;;;;;;;5130908;28;20454;-85
2021/10/21 02:00:37;;;;;;;5.40;3.60;;;;;;;;;;5130168;28;20510;-84
2021/10/21 02:03:05;;;;;;;6.97;3.67;;;;;;;;;;5128075;28;20526;-85
2021/10/21 02:05:34;;;;;;;5.57;3.70;;;;;;;;;;5127912;28;20782;-84
2021/10/21 02:08:01;;;;;;;5.67;3.50;;;;;;;;;;5126962;28;20470;-84
2021/10/21 02:10:29;;;;;;;7.50;4.20;;;;;;;;;;5128572;28;20522;-84
2021/10/21 02:13:00;;;;;;;5.80;3.50;;;;;;;;;;5126824;28;20483;-84
2021/10/21 02:15:27;;;;;;;7.93;3.60;;;;;;;;;;5129616;28;20529;-83
2021/10/21 02:17:55;;;;;;;7.53;3.63;;;;;;;;;;5128300;28;20474;-84
2021/10/21 02:20:23;;;;;;;10.97;4.30;;;;;;;;;;5130561;28;20483;-84
2021/10/21 02:22:51;;;;;;;6.17;3.67;;;;;;;;;;5129561;28;20854;-84
2021/10/21 02:25:19;;;;;;;5.37;4.03;;;;;;;;;;5127755;28;20494;-85
2021/10/21 02:27:47;;;;;;;5.93;3.80;;;;;;;;;;5129106;28;20486;-84
2021/10/21 02:30:18;;;;;;;5.90;4.17;;;;;;;;;;5128200;28;20477;-85
2021/10/21 02:32:45;;;;;;;5.83;3.80;;;;;;;;;;5127466;28;20493;-84
2021/10/21 02:35:13;;;;;;;6.10;3.70;;;;;;;;;;5128452;28;20541;-84
2021/10/21 02:37:41;;;;;;;8.20;5.10;;;;;;;;;;5127429;28;20489;-84
2021/10/21 02:40:11;;;;;;;4.90;3.83;;;;;;;;;;5127364;28;20443;-84
2021/10/21 02:42:39;;;;;;;8.70;4.40;;;;;;;;;;5128225;28;20533;-85
2021/10/21 02:45:07;;;;;;;7.60;3.63;;;;;;;;;;5127133;28;20458;-84
2021/10/21 02:47:37;;;;;;;5.20;4.00;;;;;;;;;;5128273;28;20493;-85
2021/10/21 02:50:05;;;;;;;5.93;3.47;;;;;;;;;;5127862;28;20459;-85
2021/10/21 02:52:33;;;;;;;5.60;4.23;;;;;;;;;;5127165;28;20551;-85
2021/10/21 02:55:00;;;;;;;11.93;4.57;;;;;;;;;;5127093;28;20481;-84
2021/10/21 02:57:28;;;;;;;7.20;4.93;;;;;;;;;;5125786;28;20873;-84
2021/10/21 02:59:56;;;;;;;8.03;4.63;;;;;;;;;;5127339;28;20791;-85
2021/10/21 03:02:23;;;;;;;5.90;4.77;;;;;;;;;;5125889;28;20460;-83
2021/10/21 03:04:52;;;;;;;5.13;4.40;;;;;;;;;;5126668;28;20546;-84
2021/10/21 03:07:24;;;;;;;5.47;3.40;;;;;;;;;;5126021;28;20446;-85
2021/10/21 03:09:51;;;;;;;7.03;3.87;;;;;;;;;;5125913;28;20443;-85
2021/10/21 03:12:19;;;;;;;6.13;4.10;;;;;;;;;;5126603;28;20498;-84
2021/10/21 03:14:47;;;;;;;7.80;4.80;;;;;;;;;;5127588;28;20482;-85
2021/10/21 03:17:15;;;;;;;6.63;4.60;;;;;;;;;;5130504;28;20481;-84
2021/10/21 03:19:44;;;;;;;6.30;4.37;;;;;;;;;;5125782;28;20482;-84
2021/10/21 03:22:13;;;;;;;8.03;4.47;;;;;;;;;;5130558;28;20445;-84
2021/10/21 03:24:41;;;;;;;8.03;4.93;;;;;;;;;;5130258;28;20478;-83
2021/10/21 03:27:08;;;;;;;5.90;3.33;;;;;;;;;;5132270;28;20624;-83
2021/10/21 03:29:38;;;;;;;7.70;4.60;;;;;;;;;;5130916;28;20482;-84
2021/10/21 03:32:06;;;;;;;6.40;5.77;;;;;;;;;;5129886;28;20507;-83
2021/10/21 03:34:34;;;;;;;8.63;4.57;;;;;;;;;;5128427;28;20773;-84
2021/10/21 03:37:01;;;;;;;8.13;4.90;;;;;;;;;;5128639;28;20843;-84
2021/10/21 03:39:31;;;;;;;6.13;4.43;;;;;;;;;;5128334;28;20451;-83
2021/10/21 03:41:59;;;;;;;5.70;4.47;;;;;;;;;;5127797;28;20811;-83
2021/10/21 03:44:27;;;;;;;5.60;4.50;;;;;;;;;;5129028;28;20515;-83
2021/10/21 03:46:54;;;;;;;8.80;4.37;;;;;;;;;;5129672;28;20485;-83
2021/10/21 03:49:22;;;;;;;6.33;4.20;;;;;;;;;;5129054;28;20939;-84
2021/10/21 03:52:05;;;;;;;5.80;4.20;;;;;;;;;;5128274;28;20466;-84
2021/10/21 03:54:35;;;;;;;3.93;3.53;;;;;;;;;;5129094;28;20533;-84
2021/10/21 03:57:05;;;;;;;5.33;3.67;;;;;;;;;;5130973;28;20936;-83
2021/10/21 03:59:33;;;;;;;4.87;3.07;;;;;;;;;;5128794;28;20534;-83
2021/10/21 04:02:00;;;;;;;5.53;3.60;;;;;;;;;;5127978;28;20477;-84
2021/10/21 04:04:28;;;;;;;4.10;3.63;;;;;;;;;;5127164;28;20466;-84
2021/10/21 04:06:57;;;;;;;5.90;3.10;;;;;;;;;;5125726;28;20468;-83
2021/10/21 04:09:24;;;;;;;6.73;3.43;;;;;;;;;;5124264;28;21186;-84
2021/10/21 04:11:57;;;;;;;4.50;3.33;;;;;;;;;;5125397;28;20451;-83
2021/10/21 04:14:25;;;;;;;8.07;3.17;;;;;;;;;;5130623;28;20593;-84
2021/10/21 04:16:52;;;;;;;3.87;3.30;;;;;;;;;;5130813;28;20530;-83
2021/10/21 04:19:20;;;;;;;4.20;3.70;;;;;;;;;;5130071;28;20434;-84
2021/10/21 04:21:47;;;;;;;4.20;3.13;;;;;;;;;;5129704;28;20474;-84
2021/10/21 04:24:17;;;;;;;3.83;3.50;;;;;;;;;;5130451;28;20442;-83
2021/10/21 04:26:45;;;;;;;3.90;2.93;;;;;;;;;;5128183;28;20458;-84
2021/10/21 04:29:20;;;;;;;3.43;2.37;;;;;;;;;;5129220;28;20475;-84
2021/10/21 04:31:48;;;;;;;3.80;2.00;;;;;;;;;;5130896;28;20898;-84
2021/10/21 04:34:16;;;;;;;5.33;2.03;;;;;;;;;;5129760;28;20538;-83
2021/10/21 04:36:43;;;;;;;2.17;1.30;;;;;;;;;;5128064;28;20553;-83
2021/10/21 04:39:11;;;;;;;3.60;1.90;;;;;;;;;;5128728;28;20439;-84
2021/10/21 04:41:39;;;;;;;2.27;1.47;;;;;;;;;;5127994;28;20471;-83
2021/10/21 04:44:07;;;;;;;2.93;1.40;;;;;;;;;;5128033;28;20451;-83
2021/10/21 04:46:36;;;;;;;2.77;1.30;;;;;;;;;;5129419;28;20450;-83
2021/10/21 04:49:04;;;;;;;1.77;1.00;;;;;;;;;;5127499;28;20546;-84
2021/10/21 04:51:31;;;;;;;2.67;1.80;;;;;;;;;;5127555;28;20457;-82
2021/10/21 04:54:00;;;;;;;3.97;1.83;;;;;;;;;;5128113;28;20479;-83
2021/10/21 04:56:28;;;;;;;2.93;1.20;;;;;;;;;;5127816;28;20515;-83
2021/10/21 04:58:56;;;;;;;1.70;1.00;;;;;;;;;;5128802;28;20726;-83
2021/10/21 05:01:24;;;;;;;2.17;1.20;;;;;;;;;;5127505;28;20538;-83
2021/10/21 05:03:54;;;;;;;2.90;1.17;;;;;;;;;;5127896;28;20545;-83
2021/10/21 05:06:23;;;;;;;2.70;1.33;;;;;;;;;;5130007;28;20493;-83
2021/10/21 05:08:51;;;;;;;2.10;1.43;;;;;;;;;;5126527;28;20454;-83
2021/10/21 05:11:18;;;;;;;2.20;1.10;;;;;;;;;;5128368;28;20490;-83
2021/10/21 05:13:46;;;;;;;1.87;1.33;;;;;;;;;;5127052;28;20512;-82
2021/10/21 05:16:14;;;;;;;2.50;1.00;;;;;;;;;;5127502;28;20450;-83
2021/10/21 05:18:42;;;;;;;1.80;0.93;;;;;;;;;;5128286;28;20451;-83
2021/10/21 05:21:11;;;;;;;1.20;0.70;;;;;;;;;;5126989;28;20476;-82
2021/10/21 05:23:41;;;;;;;1.60;0.70;;;;;;;;;;5132414;27;20434;-82
2021/10/21 05:26:09;;;;;;;1.33;0.97;;;;;;;;;;5148222;27;20457;-82
2021/10/21 05:28:37;;;;;;;3.30;1.83;;;;;;;;;;5149171;27;20484;-83
2021/10/21 05:31:05;;;;;;;1.83;1.07;;;;;;;;;;5148104;27;20449;-83
2021/10/21 05:33:35;;;;;;;2.70;1.00;;;;;;;;;;5148310;27;20528;-83
2021/10/21 05:36:03;;;;;;;1.40;0.80;;;;;;;;;;5147777;27;20511;-83
2021/10/21 05:38:33;;;;;;;2.50;0.70;;;;;;;;;;5148891;27;20501;-83
2021/10/21 05:41:02;;;;;;;1.30;0.63;;;;;;;;;;5148509;27;20446;-83
2021/10/21 05:43:31;;;;;;;3.77;0.97;;;;;;;;;;5148446;27;20506;-83
2021/10/21 05:46:01;;;;;;;1.60;0.80;;;;;;;;;;5147827;27;20481;-83
2021/10/21 05:48:29;;;;;;;1.10;0.50;;;;;;;;;;5150193;27;20449;-82
2021/10/21 05:50:57;;;;;;;1.57;0.77;;;;;;;;;;5141341;27;20491;-83
2021/10/21 05:53:25;;;;;;;1.20;0.63;;;;;;;;;;5127171;28;20479;-82
2021/10/21 05:55:54;;;;;;;1.67;0.50;;;;;;;;;;5126977;28;20460;-82
2021/10/21 05:58:23;;;;;;;2.17;0.60;;;;;;;;;;5124787;28;20541;-81
2021/10/21 06:00:51;;;;;;;2.73;0.93;;;;;;;;;;5127841;28;20446;-82
2021/10/21 06:03:46;;;;;;;1.10;0.60;;;;;;;;;;5127927;28;20454;-82
2021/10/21 06:06:14;;;;;;;1.93;0.70;;;;;;;;;;5125481;28;20484;-83
2021/10/21 06:08:44;;;;;;;3.67;1.10;;;;;;;;;;5123275;28;20517;-82
2021/10/21 06:11:13;;;;;;;2.37;1.10;;;;;;;;;;5124736;28;20447;-82
2021/10/21 06:13:42;;;;;;;1.40;0.73;;;;;;;;;;5123464;28;20573;-83
2021/10/21 06:16:09;;;;;;;2.37;1.00;;;;;;;;;;5128025;27;21068;-81
2021/10/21 06:18:37;;;;;;;1.70;1.10;;;;;;;;;;5148436;27;20456;-82
2021/10/21 06:21:11;;;;;;;4.53;1.10;;;;;;;;;;5162123;27;20471;-84
2021/10/21 06:23:41;;;;;;;4.57;2.40;;;;;;;;;;5146678;27;20449;-82
2021/10/21 06:26:09;;;;;;;4.20;1.17;;;;;;;;;;5146121;27;20446;-81
2021/10/21 06:28:39;;;;;;;2.60;0.80;;;;;;;;;;5165052;27;20765;-81
2021/10/21 06:31:07;;;;;;;2.03;1.00;;;;;;;;;;5150355;27;20857;-82
2021/10/21 06:33:35;;;;;;;1.97;1.03;;;;;;;;;;5149428;27;20564;-84
2021/10/21 06:36:03;;;;;;;2.97;1.07;;;;;;;;;;5147802;27;20513;-84
2021/10/21 06:38:31;;;;;;;2.00;1.20;;;;;;;;;;5148721;27;20576;-85
2021/10/21 06:40:59;;;;;;;1.27;0.70;;;;;;;;;;5147099;28;20783;-83
2021/10/21 06:43:27;;;;;;;2.67;1.00;;;;;;;;;;5146957;28;20453;-82
2021/10/21 06:45:56;;;;;;;2.90;1.07;;;;;;;;;;5146589;28;20822;-83
2021/10/21 06:48:24;;;;;;;4.13;1.40;;;;;;;;;;5146594;27;20461;-83
2021/10/21 06:50:52;;;;;;;2.23;1.10;;;;;;;;;;5165118;27;20437;-84
2021/10/21 06:53:20;;;;;;;2.97;1.63;;;;;;;;;;5162011;27;20481;-83
2021/10/21 06:55:49;;;;;;;2.40;0.90;;;;;;;;;;5139087;27;20439;-83
2021/10/21 06:58:21;;;;;;;1.30;0.73;;;;;;;;;;5154041;27;20483;-83
2021/10/21 07:00:49;;;;;;;2.70;2.13;;;;;;;;;;5155408;27;20513;-82
2021/10/21 07:03:19;;;;;;;3.30;1.30;;;;;;;;;;5147355;27;20538;-81
2021/10/21 07:05:53;;;;;;;1.70;0.93;;;;;;;;;;5150062;27;20491;-82
2021/10/21 07:08:23;;;;;;;2.53;1.10;;;;;;;;;;5166938;27;20456;-80
2021/10/21 07:10:51;;;;;;;4.37;1.43;;;;;;;;;;5170474;27;20437;-83
2021/10/21 07:13:19;;;;;;;2.77;1.70;;;;;;;;;;5170787;27;20469;-83
2021/10/21 07:15:50;;;;;;;3.63;1.37;;;;;;;;;;5164843;27;20441;-84
2021/10/21 07:18:19;;;;;;;2.47;1.13;;;;;;;;;;5171504;27;20457;-82
2021/10/21 07:20:49;;;;;;;2.73;1.70;;;;;;;;;;5167709;27;20513;-82
2021/10/21 07:23:18;;;;;;;2.83;2.00;;;;;;;;;;5155789;27;20461;-81
2021/10/21 07:25:46;;;;;;;1.50;0.63;;;;;;;;;;5144210;27;20452;-82
2021/10/21 07:28:14;;;;;;;6.70;2.10;;;;;;;;;;5143110;27;20456;-82
2021/10/21 07:30:48;;;;;;;1.97;1.10;;;;;;;;;;5149859;27;20441;-82
2021/10/21 07:33:16;;;;;;;4.47;2.63;;;;;;;;;;5149205;27;20527;-82
2021/10/21 07:35:51;;;;;;;4.33;1.47;;;;;;;;;;5150285;27;20442;-82
2021/10/21 07:38:19;;;;;;;2.43;1.20;;;;;;;;;;5148213;27;20508;-83
2021/10/21 07:40:48;;;;;;;2.33;1.40;;;;;;;;;;5147814;27;20450;-82
2021/10/21 07:43:26;;;;;;;2.37;1.10;;;;;;;;;;5160895;27;20452;-82
2021/10/21 07:45:53;;;;;;;3.60;1.40;;;;;;;;;;5145539;27;20457;-80
2021/10/21 07:48:23;;;;;;;3.13;2.00;;;;;;;;;;5145608;27;20450;-81
2021/10/21 07:50:53;;;;;;;2.70;1.30;;;;;;;;;;5146640;27;20520;-81
2021/10/21 07:53:21;;;;;;;11.30;6.30;;;;;;;;;;5144073;27;20992;-81
2021/10/21 07:55:49;;;;;;;3.10;1.60;;;;;;;;;;5147810;27;20438;-81
2021/10/21 07:58:18;;;;;;;6.20;1.80;;;;;;;;;;5144833;27;20473;-81
2021/10/21 08:00:46;;;;;;;3.50;1.70;;;;;;;;;;5149648;27;20449;-82
2021/10/21 08:03:14;;;;;;;3.17;0.90;;;;;;;;;;5164682;27;20513;-83
2021/10/21 08:05:44;;;;;;;2.13;1.23;;;;;;;;;;5139342;27;20534;-80
2021/10/21 08:08:18;;;;;;;1.67;1.37;;;;;;;;;;5130118;27;20515;-82
2021/10/21 08:10:47;;;;;;;2.10;1.53;;;;;;;;;;5130123;27;20455;-83
2021/10/21 08:13:16;;;;;;;1.93;1.47;;;;;;;;;;5148021;27;20472;-83
2021/10/21 08:15:45;;;;;;;2.43;1.10;;;;;;;;;;5132348;27;20813;-83
2021/10/21 08:18:14;;;;;;;4.17;1.10;;;;;;;;;;5147464;27;20654;-83
2021/10/21 08:20:43;;;;;;;1.80;0.70;;;;;;;;;;5156429;27;20513;-83
2021/10/21 08:23:15;;;;;;;1.97;1.27;;;;;;;;;;5151740;27;20453;-82
2021/10/21 08:25:42;;;;;;;4.20;1.90;;;;;;;;;;5141371;27;20442;-83
2021/10/21 08:28:10;;;;;;;2.37;1.10;;;;;;;;;;5153089;27;20482;-81
2021/10/21 08:30:42;;;;;;;1.93;1.03;;;;;;;;;;5157690;27;20440;-82
2021/10/21 08:33:10;;;;;;;2.60;0.80;;;;;;;;;;5145218;27;20450;-82
2021/10/21 08:35:38;;;;;;;4.97;2.47;;;;;;;;;;5148822;27;20507;-83
2021/10/21 08:38:07;;;;;;;2.03;0.97;;;;;;;;;;5149131;27;20491;-82
2021/10/21 08:40:37;;;;;;;1.60;0.70;;;;;;;;;;5146541;27;20476;-82
2021/10/21 08:43:10;;;;;;;1.50;0.70;;;;;;;;;;5142805;27;20453;-84
2021/10/21 08:45:41;;;;;;;1.60;0.70;;;;;;;;;;5139572;27;20445;-83
2021/10/21 08:48:13;;;;;;;1.10;0.60;;;;;;;;;;5138141;27;20615;-80
2021/10/21 08:50:41;;;;;;;1.40;0.77;;;;;;;;;;5138988;27;20445;-83
2021/10/21 08:53:09;;;;;;;2.80;0.90;;;;;;;;;;5152312;27;20458;-82
2021/10/21 08:55:39;;;;;;;1.63;0.80;;;;;;;;;;5142324;27;20541;-84
2021/10/21 08:58:07;;;;;;;1.20;0.77;;;;;;;;;;5142882;27;20537;-82
2021/10/21 09:00:38;;;;;;;2.03;1.00;;;;;;;;;;5145203;27;20453;-81
2021/10/21 09:03:13;;;;;;;1.63;0.70;;;;;;;;;;5142662;27;20963;-83
2021/10/21 09:05:49;;;;;;;2.60;0.63;;;;;;;;;;5146459;27;20428;-80
2021/10/21 09:08:20;;;;;;;2.53;0.70;;;;;;;;;;5154247;27;20457;-81
2021/10/21 09:10:52;;;;;;;1.60;0.70;;;;;;;;;;5146418;27;20606;-83
2021/10/21 09:13:21;;;;;;;1.60;0.80;;;;;;;;;;5143492;27;20507;-83
2021/10/21 09:15:50;;;;;;;1.77;0.97;;;;;;;;;;5145158;27;20473;-83
2021/10/21 09:18:18;;;;;;;1.43;1.23;;;;;;;;;;5155804;27;20484;-83
2021/10/21 09:20:47;;;;;;;1.80;1.27;;;;;;;;;;5167924;27;20548;-82
2021/10/21 09:23:25;;;;;;;1.27;0.47;;;;;;;;;;5166422;27;20544;-82
2021/10/21 09:26:06;;;;;;;2.13;1.00;;;;;;;;;;5163229;27;20465;-81
2021/10/21 09:28:35;;;;;;;1.10;0.57;;;;;;;;;;5125321;27;20482;-81
2021/10/21 09:31:09;;;;;;;2.40;1.80;;;;;;;;;;5119236;28;20541;-81
2021/10/21 09:33:50;;;;;;;3.63;2.00;;;;;;;;;;5151834;27;20437;-82
2021/10/21 09:36:22;;;;;;;1.60;0.90;;;;;;;;;;5149491;27;20524;-83
2021/10/21 09:38:54;;;;;;;2.40;1.13;;;;;;;;;;5148256;27;20453;-82
2021/10/21 09:41:24;;;;;;;1.83;1.17;;;;;;;;;;5147307;27;20719;-80
2021/10/21 09:43:52;;;;;;;2.03;1.27;;;;;;;;;;5154152;27;20486;-81
2021/10/21 09:46:35;;;;;;;2.57;0.93;;;;;;;;;;5167748;27;20482;-79
2021/10/21 09:49:21;;;;;;;4.60;1.60;;;;;;;;;;5166620;27;20490;-82
2021/10/21 09:51:49;;;;;;;1.60;0.90;;;;;;;;;;5163582;27;20708;-82
2021/10/21 09:54:17;;;;;;;1.60;1.13;;;;;;;;;;5163320;27;20483;-83
2021/10/21 09:56:59;;;;;;;2.50;1.57;;;;;;;;;;5166772;27;20478;-83
2021/10/21 09:59:28;;;;;;;3.87;1.80;;;;;;;;;;5162841;27;20702;-83
2021/10/21 10:01:58;;;;;;;2.60;1.80;;;;;;;;;;5166911;27;20468;-82
2021/10/21 10:04:26;;;;;;;5.07;1.90;;;;;;;;;;5155978;27;20453;-83
2021/10/21 10:06:58;;;;;;;4.00;1.60;;;;;;;;;;5126552;28;20465;-79
2021/10/21 10:09:31;;;;;;;2.20;1.00;;;;;;;;;;5122484;28;20553;-82
2021/10/21 10:12:02;;;;;;;3.57;1.90;;;;;;;;;;5127062;28;20470;-82
2021/10/21 10:14:31;;;;;;;2.53;0.70;;;;;;;;;;5124176;28;20493;-81
2021/10/21 10:17:07;;;;;;;2.10;0.97;;;;;;;;;;5122950;28;20451;-81
2021/10/21 10:19:36;;;;;;;4.43;1.53;;;;;;;;;;5125060;28;20451;-82
2021/10/21 10:22:08;;;;;;;2.87;1.30;;;;;;;;;;5123844;28;20526;-81
2021/10/21 10:24:39;;;;;;;6.90;1.47;;;;;;;;;;5122460;28;20477;-81
2021/10/21 10:27:23;;;;;;;1.40;0.90;;;;;;;;;;5128392;27;20453;-81
2021/10/21 10:29:53;;;;;;;5.27;2.00;;;;;;;;;;5153395;27;20751;-79
2021/10/21 10:32:35;;;;;;;5.07;2.57;;;;;;;;;;5166638;27;20441;-81
2021/10/21 10:35:06;;;;;;;3.20;1.80;;;;;;;;;;5158853;27;20515;-82
2021/10/21 10:37:41;;;;;;;2.03;1.37;;;;;;;;;;5156388;27;20446;-82
2021/10/21 10:40:09;;;;;;;2.70;1.70;;;;;;;;;;5145424;28;20554;-83
2021/10/21 10:42:51;;;;;;;3.13;1.73;;;;;;;;;;5140768;27;20830;-83
2021/10/21 10:45:21;;;;;;;3.80;1.20;;;;;;;;;;5138499;27;20508;-83
2021/10/21 10:47:49;;;;;;;5.23;3.27;;;;;;;;;;5140991;27;20983;-80
2021/10/21 10:50:18;;;;;;;3.23;1.93;;;;;;;;;;5153844;27;20460;-82
2021/10/21 10:52:48;;;;;;;3.00;1.13;;;;;;;;;;5146818;27;20500;-82
2021/10/21 10:55:18;;;;;;;2.60;1.73;;;;;;;;;;5147726;27;20558;-83
2021/10/21 10:57:56;;;;;;;3.60;2.20;;;;;;;;;;5142868;28;20446;-83
2021/10/21 11:00:45;;;;;;;4.00;1.27;;;;;;;;;;5145613;27;20678;-83
2021/10/21 11:03:13;;;;;;;2.50;1.60;;;;;;;;;;5150454;27;20441;-84
2021/10/21 11:05:54;;;;;;;3.90;1.83;;;;;;;;;;5143783;27;20434;-83
2021/10/21 11:08:21;;;;;;;1.80;1.53;;;;;;;;;;5141917;27;20487;-84
2021/10/21 11:10:54;;;;;;;1.87;1.27;;;;;;;;;;5143970;27;20446;-83
2021/10/21 11:13:36;;;;;;;2.97;1.30;;;;;;;;;;5138989;27;20438;-82
2021/10/21 11:16:26;;;;;;;3.83;1.87;;;;;;;;;;5148126;27;20472;-82
2021/10/21 11:18:54;;;;;;;2.20;1.37;;;;;;;;;;5152084;27;20450;-82
2021/10/21 11:21:53;;;;;;;7.53;1.20;;;;;;;;;;5151788;27;20467;-84
2021/10/21 11:24:38;;;;;;;4.40;1.83;;;;;;;;;;5061681;28;20530;-83
2021/10/21 11:27:09;;;;;;;2.63;2.10;;;;;;;;;;5120129;28;20439;-82
2021/10/21 11:29:37;;;;;;;1.90;1.20;;;;;;;;;;5159505;27;20460;-84
2021/10/21 11:32:08;;;;;;;2.77;1.63;;;;;;;;;;5153803;27;20446;-81
2021/10/21 11:34:36;;;;;;;3.57;1.67;;;;;;;;;;5150818;27;20463;-82
2021/10/21 11:37:04;;;;;;;4.27;2.33;;;;;;;;;;5163035;27;20536;-82
2021/10/21 11:39:31;;;;;;;2.97;1.10;;;;;;;;;;5152092;27;20502;-83
2021/10/21 11:42:00;;;;;;;4.20;2.07;;;;;;;;;;5147062;27;20516;-82
2021/10/21 11:44:29;;;;;;;2.57;1.10;;;;;;;;;;5142934;27;20473;-83
2021/10/21 11:46:57;;;;;;;4.17;1.50;;;;;;;;;;5145746;27;20458;-82
2021/10/21 11:49:31;;;;;;;2.20;1.30;;;;;;;;;;5137501;27;20458;-83
2021/10/21 11:52:10;;;;;;;4.33;2.80;;;;;;;;;;5162293;27;20483;-83
2021/10/21 11:54:41;;;;;;;4.77;1.30;;;;;;;;;;5166345;27;20449;-83
2021/10/21 11:57:09;;;;;;;5.70;2.07;;;;;;;;;;5166507;27;20746;-82
2021/10/21 11:59:38;;;;;;;3.07;1.37;;;;;;;;;;5146377;27;20453;-83
2021/10/21 12:02:12;;;;;;;2.13;1.07;;;;;;;;;;5156278;27;20525;-83
2021/10/21 12:04:42;;;;;;;6.13;1.40;;;;;;;;;;5150067;27;20542;-84
2021/10/21 12:07:10;;;;;;;5.27;1.63;;;;;;;;;;5144483;27;20449;-83
2021/10/21 12:09:41;;;;;;;6.13;2.00;;;;;;;;;;5145908;27;20453;-82
2021/10/21 12:12:11;;;;;;;6.90;1.97;;;;;;;;;;5146097;27;20456;-82
2021/10/21 12:14:45;;;;;;;5.87;2.47;;;;;;;;;;5148142;27;20552;-82
2021/10/21 12:17:23;;;;;;;5.30;1.00;;;;;;;;;;5148446;27;20450;-84
2021/10/21 12:19:57;;;;;;;8.00;2.60;;;;;;;;;;5147974;27;20463;-83
2021/10/21 12:22:29;;;;;;;5.20;1.87;;;;;;;;;;5150289;27;20501;-82
2021/10/21 12:25:01;;;;;;;3.60;1.53;;;;;;;;;;5148164;27;20461;-82
2021/10/21 12:27:29;;;;;;;3.60;1.70;;;;;;;;;;5147978;27;20861;-84
2021/10/21 12:30:01;;;;;;;3.60;1.33;;;;;;;;;;5148456;27;20454;-84
2021/10/21 12:32:29;;;;;;;11.47;5.10;;;;;;;;;;5148316;27;21194;-82
2021/10/21 12:35:11;;;;;;;4.17;1.83;;;;;;;;;;5148006;27;20511;-83
2021/10/21 12:37:40;;;;;;;8.03;2.30;;;;;;;;;;5142722;27;20427;-81
2021/10/21 12:40:16;;;;;;;3.80;2.20;;;;;;;;;;5132804;27;21011;-82
2021/10/21 12:42:45;;;;;;;1.50;0.90;;;;;;;;;;5147659;27;20842;-81
2021/10/21 12:45:20;;;;;;;2.70;1.50;;;;;;;;;;5147330;27;20463;-83
2021/10/21 12:47:48;;;;;;;3.47;1.80;;;;;;;;;;5129683;27;20778;-82
2021/10/21 12:50:17;;;;;;;9.63;1.93;;;;;;;;;;5147051;27;20461;-82
2021/10/21 12:52:46;;;;;;;6.97;2.10;;;;;;;;;;5145145;27;20442;-82
2021/10/21 12:55:16;;;;;;;7.73;2.43;;;;;;;;;;5145319;27;20486;-82
2021/10/21 12:57:49;;;;;;;9.87;2.40;;;;;;;;;;5146399;27;20469;-82
2021/10/21 13:00:27;;;;;;;2.10;1.73;;;;;;;;;;5139018;27;20455;-82
2021/10/21 13:03:04;;;;;;;6.53;2.33;;;;;;;;;;5134454;27;20445;-83
2021/10/21 13:05:33;;;;;;;9.27;2.10;;;;;;;;;;5155374;27;20458;-83
2021/10/21 13:08:02;;;;;;;3.83;2.67;;;;;;;;;;5146387;27;20476;-84
2021/10/21 13:10:31;;;;;;;5.10;3.47;;;;;;;;;;5135832;27;20458;-83
2021/10/21 13:12:59;;;;;;;5.33;1.10;;;;;;;;;;5144836;27;20454;-81
2021/10/21 13:15:30;;;;;;;5.60;1.90;;;;;;;;;;5143238;27;20482;-83
2021/10/21 13:18:09;;;;;;;2.93;1.43;;;;;;;;;;5152898;27;20445;-82
2021/10/21 13:20:46;;;;;;;1.60;1.07;;;;;;;;;;5142878;27;20464;-84
2021/10/21 13:23:14;;;;;;;1.93;0.80;;;;;;;;;;5144213;27;20444;-83
2021/10/21 13:25:41;;;;;;;1.60;0.97;;;;;;;;;;5142620;27;20530;-83
2021/10/21 13:28:09;;;;;;;1.90;1.40;;;;;;;;;;5140473;27;21096;-83
2021/10/21 13:30:37;;;;;;;4.10;1.87;;;;;;;;;;5147169;27;20517;-83
2021/10/21 13:33:05;;;;;;;8.73;3.17;;;;;;;;;;5146789;27;20445;-83
2021/10/21 13:35:33;;;;;;;4.40;2.53;;;;;;;;;;5143146;27;20808;-82
2021/10/21 13:38:03;;;;;;;4.13;1.37;;;;;;;;;;5143751;27;20865;-84
2021/10/21 13:40:31;;;;;;;3.90;2.10;;;;;;;;;;5141021;27;20756;-84
2021/10/21 13:43:00;;;;;;;9.13;2.63;;;;;;;;;;5141776;27;20481;-84
2021/10/21 13:45:28;;;;;;;4.60;1.47;;;;;;;;;;5142867;27;20445;-83
2021/10/21 13:47:56;;;;;;;4.47;2.23;;;;;;;;;;5145169;27;20491;-84
2021/10/21 13:50:24;;;;;;;8.63;3.43;;;;;;;;;;5144695;27;20504;-83
2021/10/21 13:52:51;;;;;;;4.53;2.30;;;;;;;;;;5143915;27;20446;-84
2021/10/21 13:55:21;;;;;;;3.17;2.13;;;;;;;;;;5143245;27;20937;-82
2021/10/21 13:57:58;;;;;;;2.90;1.40;;;;;;;;;;5136277;27;20518;-83
2021/10/21 14:00:30;;;;;;;4.43;1.30;;;;;;;;;;5138222;27;20485;-82
2021/10/21 14:02:58;;;;;;;8.20;1.13;;;;;;;;;;5140967;27;20680;-84
2021/10/21 14:05:26;;;;;;;3.37;1.63;;;;;;;;;;5140202;27;20758;-82
2021/10/21 14:07:54;;;;;;;2.40;1.10;;;;;;;;;;5141303;27;21126;-82
2021/10/21 14:10:24;;;;;;;4.37;1.70;;;;;;;;;;5143166;27;20457;-82
2021/10/21 14:12:53;;;;;;;8.03;2.97;;;;;;;;;;5141556;27;20926;-83
2021/10/21 14:15:21;;;;;;;5.53;1.60;;;;;;;;;;5146081;27;20597;-84
2021/10/21 14:17:49;;;;;;;2.80;1.63;;;;;;;;;;5146716;27;20433;-82
2021/10/21 14:20:17;;;;;;;4.40;1.23;;;;;;;;;;5143434;27;21188;-81
2021/10/21 14:22:45;;;;;;;4.70;1.33;;;;;;;;;;5143337;27;20483;-80
2021/10/21 14:25:12;;;;;;;4.70;1.73;;;;;;;;;;5140635;27;20434;-80
2021/10/21 14:27:42;;;;;;;3.80;1.10;;;;;;;;;;5141753;27;20514;-81
2021/10/21 14:30:11;;;;;;;2.60;1.63;;;;;;;;;;5143026;27;20484;-80
2021/10/21 14:32:43;;;;;;;5.83;1.50;;;;;;;;;;5144786;27;20480;-81
2021/10/21 14:35:15;;;;;;;3.17;2.03;;;;;;;;;;5144293;27;20842;-84
2021/10/21 14:37:43;;;;;;;2.37;1.20;;;;;;;;;;5128874;27;20445;-84
2021/10/21 14:40:12;;;;;;;4.20;2.17;;;;;;;;;;5141231;27;20898;-82
2021/10/21 14:42:42;;;;;;;2.30;1.20;;;;;;;;;;5136265;28;20453;-81
2021/10/21 14:45:11;;;;;;;2.70;1.80;;;;;;;;;;5128672;28;20450;-81
2021/10/21 14:47:38;;;;;;;1.70;1.20;;;;;;;;;;5142938;27;20465;-82
2021/10/21 14:50:07;;;;;;;4.60;1.00;;;;;;;;;;5133774;27;20498;-81
2021/10/21 14:52:36;;;;;;;2.50;1.23;;;;;;;;;;5137743;28;20439;-82
2021/10/21 14:55:05;;;;;;;4.80;2.03;;;;;;;;;;5138801;28;20442;-80
2021/10/21 14:57:33;;;;;;;4.60;2.73;;;;;;;;;;5130283;28;20493;-82
2021/10/21 15:00:10;;;;;;;8.07;1.80;;;;;;;;;;5139260;27;20509;-82